createdAt,value
2022-08-11T00:02:15.039Z,95366.75
2022-08-11T00:05:23.842Z,95376.41
2022-08-11T00:08:34.314Z,95375.34
2022-08-11T00:11:48.019Z,95376.13
2022-08-11T00:15:02.527Z,95371.03
2022-08-11T00:18:12.697Z,95372.69
2022-08-11T00:21:54.636Z,95369.13
2022-08-11T00:24:57.201Z,95373.25
2022-08-11T00:28:29.196Z,95371.94
2022-08-11T00:31:44.601Z,95381.09
2022-08-11T00:35:53.702Z,95377.22
2022-08-11T00:38:31.041Z,95382.72
2022-08-11T00:41:48.832Z,95385.22
2022-08-11T00:45:15.894Z,95386.22
2022-08-11T00:48:34.381Z,95392.53
2022-08-11T00:52:05.755Z,95384.25
2022-08-11T00:55:56.813Z,95380.16
2022-08-11T00:59:45.236Z,95379.72
2022-08-11T01:03:19.488Z,95377.50
2022-08-11T01:07:07.663Z,95377.50
2022-08-11T01:10:49.482Z,95368.53
2022-08-11T01:14:52.866Z,95370.09
2022-08-11T01:19:14.267Z,95364.75
2022-08-11T01:23:34.935Z,95362.63
2022-08-11T01:27:44.705Z,95362.47
2022-08-11T01:31:57.046Z,95359.94
2022-08-11T01:35:37.381Z,95366.50
2022-08-11T01:39:46.025Z,95358.06
2022-08-11T01:44:20.691Z,95367.28
2022-08-11T01:47:54.643Z,95355.84
2022-08-11T01:51:36.045Z,95358.50
2022-08-11T01:55:05.927Z,95359.47
2022-08-11T01:58:43.958Z,95345.22
2022-08-11T02:02:44.622Z,95352.47
2022-08-11T02:06:23.356Z,95352.00
2022-08-11T02:10:23.234Z,95349.06
2022-08-11T02:13:47.310Z,95341.59
2022-08-11T02:17:18.906Z,95351.34
2022-08-11T02:20:54.650Z,95346.97
2022-08-11T02:24:14.933Z,95341.81
2022-08-11T02:27:40.961Z,95345.25
2022-08-11T02:32:15.587Z,95341.34
2022-08-11T02:35:11.274Z,95341.09
2022-08-11T02:38:31.073Z,95344.16
2022-08-11T02:42:33.493Z,95344.25
2022-08-11T02:45:55.524Z,95344.81
2022-08-11T02:49:37.229Z,95343.31
2022-08-11T02:53:00.268Z,95339.41
2022-08-11T02:56:22.735Z,95342.84
2022-08-11T02:59:54.492Z,95350.22
2022-08-11T03:03:24.869Z,95346.19
2022-08-11T03:06:47.567Z,95344.06
2022-08-11T03:10:09.955Z,95341.63
2022-08-11T03:13:47.099Z,95345.72
2022-08-11T03:17:12.780Z,95348.41
2022-08-11T03:20:38.368Z,95344.38
2022-08-11T03:24:01.584Z,95340.31
2022-08-11T03:27:25.369Z,95346.44
2022-08-11T03:30:47.814Z,95345.53
2022-08-11T03:34:06.852Z,95348.66
2022-08-11T03:37:51.862Z,95334.13
2022-08-11T03:42:01.557Z,95341.09
2022-08-11T03:45:26.616Z,95340.16
2022-08-11T03:48:55.737Z,95345.47
2022-08-11T03:52:20.481Z,95342.81
2022-08-11T03:56:19.146Z,95337.69
2022-08-11T04:00:09.216Z,95340.09
2022-08-11T04:04:08.844Z,95343.28
2022-08-11T04:08:34.389Z,95340.78
2022-08-11T04:12:17.318Z,95334.69
2022-08-11T04:16:13.499Z,95334.38
2022-08-11T04:19:53.983Z,95334.69
2022-08-11T04:24:35.874Z,95331.22
2022-08-11T04:27:37.588Z,95333.06
2022-08-11T04:31:10.079Z,95328.81
2022-08-11T04:34:41.767Z,95330.66
2022-08-11T04:38:32.540Z,95330.00
2022-08-11T04:42:53.375Z,95330.31
2022-08-11T04:46:58.774Z,95329.97
2022-08-11T04:50:45.297Z,95335.28
2022-08-11T04:54:50.512Z,95332.41
2022-08-11T04:58:34.638Z,95340.09
2022-08-11T05:02:27.974Z,95339.88
2022-08-11T05:06:28.257Z,95347.44
2022-08-11T05:10:15.219Z,95351.28
2022-08-11T05:14:05.104Z,95355.63
2022-08-11T05:17:40.694Z,95350.97
2022-08-11T05:21:11.442Z,95354.97
2022-08-11T05:24:57.615Z,95353.59
2022-08-11T05:28:30.113Z,95355.47
2022-08-11T05:32:14.957Z,95347.38
2022-08-11T05:36:01.449Z,95354.59
2022-08-11T05:39:41.704Z,95348.06
2022-08-11T05:43:14.107Z,95347.97
2022-08-11T05:46:47.300Z,95351.75
2022-08-11T05:50:15.480Z,95357.25
2022-08-11T05:53:46.406Z,95352.16
2022-08-11T05:57:03.216Z,95355.97
2022-08-11T06:00:15.964Z,95350.88
2022-08-11T06:03:30.856Z,95349.97
2022-08-11T06:06:46.803Z,95348.97
2022-08-11T06:10:03.202Z,95346.19
2022-08-11T06:13:17.785Z,95348.31
2022-08-11T06:16:29.738Z,95344.53
2022-08-11T06:19:43.464Z,95353.25
2022-08-11T06:23:01.937Z,95363.31
2022-08-11T06:26:15.269Z,95357.72
2022-08-11T06:29:37.784Z,95351.91
2022-08-11T06:32:57.709Z,95345.25
2022-08-11T06:36:15.049Z,95358.66
2022-08-11T06:39:41.297Z,95349.56
2022-08-11T06:43:03.519Z,95346.84
2022-08-11T06:46:25.215Z,95354.13
2022-08-11T06:50:02.979Z,95358.81
2022-08-11T06:53:12.823Z,95360.91
2022-08-11T06:56:44.727Z,95362.22
2022-08-11T07:00:29.571Z,95363.72
2022-08-11T07:03:58.517Z,95370.84
2022-08-11T07:08:34.549Z,95375.28
2022-08-11T07:12:19.738Z,95364.50
2022-08-11T07:16:12.246Z,95362.63
2022-08-11T07:19:39.479Z,95354.53
2022-08-11T07:23:13.583Z,95356.44
2022-08-11T07:26:44.545Z,95347.72
2022-08-11T07:29:57.109Z,95353.78
2022-08-11T07:33:08.507Z,95350.66
2022-08-11T07:36:19.697Z,95339.63
2022-08-11T07:39:36.025Z,95341.31
2022-08-11T07:42:46.945Z,95332.13
2022-08-11T07:46:15.613Z,95340.00
2022-08-11T07:49:43.781Z,95333.56
2022-08-11T07:52:53.880Z,95332.06
2022-08-11T07:56:05.814Z,95333.25
2022-08-11T08:00:03.793Z,95354.41
2022-08-11T08:03:20.682Z,95334.72
2022-08-11T08:06:52.018Z,95339.81
2022-08-11T08:10:18.633Z,95333.13
2022-08-11T08:13:44.825Z,95338.72
2022-08-11T08:17:11.921Z,95342.13
2022-08-11T08:20:24.819Z,95339.28
2022-08-11T08:23:34.854Z,95331.88
2022-08-11T08:27:00.571Z,95337.72
2022-08-11T08:30:28.779Z,95335.00
2022-08-11T08:33:41.908Z,95331.94
2022-08-11T08:36:53.077Z,95328.59
2022-08-11T08:40:03.698Z,95330.84
2022-08-11T08:43:18.702Z,95331.13
2022-08-11T08:46:35.931Z,95332.31
2022-08-11T08:49:50.668Z,95334.97
2022-08-11T08:53:06.364Z,95347.66
2022-08-11T08:56:16.941Z,95343.44
2022-08-11T08:59:47.423Z,95335.41
2022-08-11T09:03:05.241Z,95336.44
2022-08-11T09:06:27.134Z,95336.94
2022-08-11T09:09:38.545Z,95333.25
2022-08-11T09:12:49.841Z,95332.13
2022-08-11T09:15:58.644Z,95333.78
2022-08-11T09:19:09.134Z,95327.09
2022-08-11T09:22:39.165Z,95333.50
2022-08-11T09:26:09.610Z,95334.09
2022-08-11T09:29:19.703Z,95340.97
2022-08-11T09:32:31.504Z,95330.47
2022-08-11T09:35:46.685Z,95335.25
2022-08-11T09:39:13.090Z,95334.06
2022-08-11T09:42:44.682Z,95337.75
2022-08-11T09:45:55.799Z,95334.84
2022-08-11T09:49:06.783Z,95347.91
2022-08-11T09:52:17.073Z,95340.28
2022-08-11T09:55:26.731Z,95347.25
2022-08-11T09:58:42.524Z,95338.84
2022-08-11T10:02:00.564Z,95333.38
2022-08-11T10:05:27.782Z,95336.31
2022-08-11T10:08:40.373Z,95331.81
2022-08-11T10:11:58.037Z,95324.19
2022-08-11T10:15:28.840Z,95322.34
2022-08-11T10:18:49.703Z,95323.56
2022-08-11T10:22:16.544Z,95321.19
2022-08-11T10:25:42.407Z,95313.75
2022-08-11T10:29:12.098Z,95318.34
2022-08-11T10:32:57.339Z,95302.56
2022-08-11T10:36:16.054Z,95304.19
2022-08-11T10:39:28.255Z,95304.66
2022-08-11T10:42:58.214Z,95302.94
2022-08-11T10:46:30.212Z,95298.44
2022-08-11T10:49:40.802Z,95302.66
2022-08-11T10:53:10.745Z,95296.81
2022-08-11T10:56:38.559Z,95293.19
2022-08-11T10:59:48.248Z,95291.19
2022-08-11T11:03:07.108Z,95290.03
2022-08-11T11:06:37.026Z,95283.22
2022-08-11T11:09:55.776Z,95277.75
2022-08-11T11:13:23.008Z,95280.66
2022-08-11T11:16:49.928Z,95284.31
2022-08-11T11:27:46.636Z,95274.91
2022-08-11T11:31:15.778Z,95267.66
2022-08-11T11:34:52.911Z,95271.22
2022-08-11T11:38:04.157Z,95273.94
2022-08-11T11:41:29.038Z,95268.84
2022-08-11T11:44:41.115Z,95267.34
2022-08-11T11:47:53.703Z,95268.75
2022-08-11T11:51:03.011Z,95269.38
2022-08-11T11:54:12.477Z,95264.16
2022-08-11T11:57:58.636Z,95268.16
2022-08-11T12:01:20.073Z,95264.09
2022-08-11T12:04:29.838Z,95263.56
2022-08-11T12:08:10.565Z,95266.69
2022-08-11T12:11:43.559Z,95259.34
2022-08-11T12:14:54.385Z,95257.38
2022-08-11T12:18:05.984Z,95252.16
2022-08-11T12:21:17.298Z,95238.06
2022-08-11T12:24:42.912Z,95250.03
2022-08-11T12:27:54.304Z,95246.84
2022-08-11T12:31:04.210Z,95234.16
2022-08-11T12:34:17.958Z,95234.84
2022-08-11T12:37:31.773Z,95232.31
2022-08-11T12:41:15.723Z,95222.41
2022-08-11T12:44:47.069Z,95233.16
2022-08-11T12:49:00.696Z,95225.31
2022-08-11T12:52:13.120Z,95212.19
2022-08-11T12:55:41.004Z,95217.91
2022-08-11T12:58:53.865Z,95214.34
2022-08-11T13:02:20.853Z,95208.13
2022-08-11T13:05:33.187Z,95202.41
2022-08-11T13:08:51.139Z,95207.09
2022-08-11T13:12:17.381Z,95208.47
2022-08-11T13:15:27.062Z,95202.50
2022-08-11T13:18:36.294Z,95199.78
2022-08-11T13:21:45.686Z,95197.25
2022-08-11T13:24:58.417Z,95201.19
2022-08-11T13:28:07.829Z,95203.88
2022-08-11T13:31:16.583Z,95198.41
2022-08-11T13:34:28.029Z,95204.72
2022-08-11T13:38:18.984Z,95199.44
2022-08-11T13:41:27.406Z,95195.94
2022-08-11T13:44:39.577Z,95200.28
2022-08-11T13:47:50.059Z,95196.13
2022-08-11T13:51:17.034Z,95196.91
2022-08-11T13:54:31.302Z,95197.59
2022-08-11T13:58:08.674Z,95188.00
2022-08-11T14:02:03.100Z,95191.09
2022-08-11T14:04:44.941Z,95179.84
2022-08-11T14:07:58.701Z,95185.84
2022-08-11T14:12:22.060Z,95182.06
2022-08-11T14:15:08.192Z,95177.47
2022-08-11T14:18:23.633Z,95170.06
2022-08-11T14:21:55.468Z,95178.13
2022-08-11T14:25:04.574Z,95182.84
2022-08-11T14:28:30.645Z,95182.16
2022-08-11T14:31:50.273Z,95176.03
2022-08-11T14:35:00.024Z,95177.97
2022-08-11T14:38:10.491Z,95166.28
2022-08-11T14:41:37.797Z,95166.59
2022-08-11T14:45:58.368Z,95173.63
2022-08-11T14:49:01.269Z,95179.53
2022-08-11T14:52:14.325Z,95175.09
2022-08-11T14:55:42.777Z,95163.00
2022-08-11T14:58:51.812Z,95172.78
2022-08-11T15:02:21.597Z,95172.13
2022-08-11T15:05:32.985Z,95169.72
2022-08-11T15:08:57.527Z,95171.66
2022-08-11T15:12:32.715Z,95163.84
2022-08-11T15:15:57.534Z,95163.50
2022-08-11T15:19:06.669Z,95162.22
2022-08-11T15:22:34.074Z,95158.28
2022-08-11T15:25:49.538Z,95155.00
2022-08-11T15:29:15.637Z,95160.81
2022-08-11T15:32:43.854Z,95151.81
2022-08-11T15:36:20.218Z,95148.22
2022-08-11T15:39:37.311Z,95155.72
2022-08-11T15:43:12.866Z,95152.34
2022-08-11T15:46:30.938Z,95139.13
2022-08-11T15:50:10.795Z,95143.69
2022-08-11T15:53:21.387Z,95147.78
2022-08-11T15:56:37.240Z,95148.41
2022-08-11T16:00:03.192Z,95152.38
2022-08-11T16:04:05.567Z,95145.09
2022-08-11T16:07:13.494Z,95140.25
2022-08-11T16:10:22.791Z,95131.53
2022-08-11T16:13:56.134Z,95144.03
2022-08-11T16:17:08.091Z,95130.38
2022-08-11T16:20:21.857Z,95125.16
2022-08-11T16:23:30.348Z,95129.41
2022-08-11T16:27:08.966Z,95125.91
2022-08-11T16:30:16.054Z,95131.38
2022-08-11T16:33:50.002Z,95128.81
2022-08-11T16:37:14.977Z,95129.38
2022-08-11T16:40:25.481Z,95129.00
2022-08-11T16:43:56.470Z,95129.56
2022-08-11T16:47:09.400Z,95126.78
2022-08-11T16:50:21.073Z,95124.66
2022-08-11T16:53:59.497Z,95127.88
2022-08-11T16:57:24.352Z,95118.25
2022-08-11T17:00:33.253Z,95115.84
2022-08-11T17:04:16.718Z,95125.09
2022-08-11T17:07:47.693Z,95127.56
2022-08-11T17:11:18.910Z,95134.44
2022-08-11T17:14:36.660Z,95129.63
2022-08-11T17:17:46.341Z,95131.03
2022-08-11T17:20:56.454Z,95126.34
2022-08-11T17:24:09.756Z,95139.84
2022-08-11T17:27:22.193Z,95140.97
2022-08-11T17:30:47.105Z,95133.66
2022-08-11T17:34:16.736Z,95141.94
2022-08-11T17:37:29.529Z,95144.22
2022-08-11T17:41:00.664Z,95139.81
2022-08-11T17:44:27.119Z,95136.63
2022-08-11T17:47:54.001Z,95140.34
2022-08-11T17:51:07.315Z,95143.66
2022-08-11T17:54:35.945Z,95144.22
2022-08-11T17:58:03.133Z,95139.69
2022-08-11T18:01:13.773Z,95145.31
2022-08-11T18:04:24.409Z,95154.66
2022-08-11T18:07:53.426Z,95154.50
2022-08-11T18:12:00.097Z,95153.78
2022-08-11T18:15:12.872Z,95152.69
2022-08-11T18:18:38.887Z,95155.97
2022-08-11T18:22:14.893Z,95153.44
2022-08-11T18:25:46.846Z,95157.84
2022-08-11T18:29:16.336Z,95155.97
2022-08-11T18:32:49.913Z,95164.91
2022-08-11T18:36:19.222Z,95163.09
2022-08-11T18:39:56.132Z,95163.50
2022-08-11T18:43:28.317Z,95160.13
2022-08-11T18:47:00.431Z,95169.41
2022-08-11T18:50:38.797Z,95165.13
2022-08-11T18:54:11.024Z,95169.41
2022-08-11T18:57:49.628Z,95170.56
2022-08-11T19:01:24.595Z,95169.47
2022-08-11T19:04:53.192Z,95177.53
2022-08-11T19:08:21.917Z,95175.63
2022-08-11T19:11:50.857Z,95171.81
2022-08-11T19:15:19.442Z,95167.94
2022-08-11T19:18:48.924Z,95175.22
2022-08-11T19:22:19.573Z,95173.66
2022-08-11T19:25:49.733Z,95178.59
2022-08-11T19:30:11.272Z,95172.03
2022-08-11T19:33:04.639Z,95171.59
2022-08-11T19:36:33.590Z,95181.94
2022-08-11T19:40:02.474Z,95174.97
2022-08-11T19:43:31.626Z,95175.63
2022-08-11T19:47:00.838Z,95177.88
2022-08-11T19:50:34.231Z,95170.09
2022-08-11T19:54:06.161Z,95173.50
2022-08-11T19:57:39.617Z,95175.34
2022-08-11T20:01:06.952Z,95176.88
2022-08-11T20:04:32.563Z,95179.56
2022-08-11T20:07:59.671Z,95190.31
2022-08-11T20:11:27.340Z,95183.00
2022-08-11T20:14:59.295Z,95195.72
2022-08-11T20:18:29.313Z,95194.03
2022-08-11T20:22:00.424Z,95193.63
2022-08-11T20:25:29.656Z,95197.84
2022-08-11T20:28:58.522Z,95194.34
2022-08-11T20:32:26.471Z,95199.44
2022-08-11T20:35:54.983Z,95206.78
2022-08-11T20:39:22.875Z,95200.84
2022-08-11T20:42:52.420Z,95200.88
2022-08-11T20:46:20.584Z,95197.75
2022-08-11T20:49:58.185Z,95206.97
2022-08-11T20:53:26.655Z,95203.22
2022-08-11T20:56:55.021Z,95209.38
2022-08-11T21:00:39.574Z,95208.50
2022-08-11T21:04:06.162Z,95209.25
2022-08-11T21:07:37.000Z,95209.63
2022-08-11T21:11:08.629Z,95212.25
2022-08-11T21:14:35.339Z,95216.88
2022-08-11T21:18:06.617Z,95214.53
2022-08-11T21:21:45.933Z,95217.22
2022-08-11T21:25:17.154Z,95221.34
2022-08-11T21:28:44.073Z,95215.19
2022-08-11T21:32:13.711Z,95216.50
2022-08-11T21:35:45.394Z,95211.00
2022-08-11T21:39:12.554Z,95214.53
2022-08-11T21:42:41.566Z,95210.25
2022-08-11T21:46:10.127Z,95216.09
2022-08-11T21:49:39.391Z,95207.19
2022-08-11T21:53:06.682Z,95206.16
2022-08-11T21:56:35.047Z,95198.44
2022-08-11T22:00:10.611Z,95199.94
2022-08-11T22:03:50.216Z,95201.91
2022-08-11T22:07:18.826Z,95195.41
2022-08-11T22:10:45.533Z,95198.28
2022-08-11T22:14:11.379Z,95195.25
2022-08-11T22:17:38.481Z,95192.91
2022-08-11T22:21:05.247Z,95188.97
2022-08-11T22:24:32.181Z,95180.84
2022-08-11T22:27:58.400Z,95189.34
2022-08-11T22:31:26.993Z,95183.09
2022-08-11T22:34:55.682Z,95192.41
2022-08-11T22:38:23.741Z,95179.50
2022-08-11T22:41:50.704Z,95180.97
2022-08-11T22:45:17.564Z,95176.09
2022-08-11T22:48:48.151Z,95182.78
2022-08-11T22:52:18.152Z,95180.25
2022-08-11T22:55:47.245Z,95184.72
2022-08-11T22:59:14.269Z,95179.44
2022-08-11T23:02:41.275Z,95182.69
2022-08-11T23:06:07.912Z,95173.25
2022-08-11T23:09:36.721Z,95178.78
2022-08-11T23:13:02.839Z,95173.09
2022-08-11T23:16:29.046Z,95172.75
2022-08-11T23:20:04.790Z,95180.09
2022-08-11T23:23:44.259Z,95181.88
2022-08-11T23:27:12.742Z,95183.97
2022-08-11T23:30:40.180Z,95173.63
2022-08-11T23:34:44.845Z,95170.59
2022-08-11T23:38:03.958Z,95167.63
2022-08-11T23:41:34.463Z,95163.97
2022-08-11T23:45:02.098Z,95172.88
2022-08-11T23:48:33.231Z,95163.50
2022-08-11T23:52:01.540Z,95163.28
2022-08-11T23:55:28.648Z,95166.72
2022-08-11T23:58:55.915Z,95167.59
